sensor_id;sensor_type;location;lat;lon;timestamp;P1;durP1;ratioP1;P2;durP2;ratioP2
10063;SDS011;5071;52.360;13.134;2023-03-12T00:00:37;4.73;;;0.80;;
10063;SDS011;5071;52.360;13.134;2023-03-12T00:05:41;1.23;;;1.10;;
10063;SDS011;5071;52.360;13.134;2023-03-12T00:10:45;2.53;;;1.10;;
10063;SDS011;5071;52.360;13.134;2023-03-12T00:15:47;2.63;;;1.00;;
10063;SDS011;5071;52.360;13.134;2023-03-12T00:20:54;1.23;;;0.60;;
10063;SDS011;5071;52.360;13.134;2023-03-12T00:25:59;2.00;;;0.90;;
10063;SDS011;5071;52.360;13.134;2023-03-12T00:31:03;1.37;;;0.80;;
10063;SDS011;5071;52.360;13.134;2023-03-12T00:36:15;2.53;;;0.97;;
10063;SDS011;5071;52.360;13.134;2023-03-12T00:41:18;2.83;;;1.00;;
10063;SDS011;5071;52.360;13.134;2023-03-12T00:46:20;2.63;;;0.50;;
10063;SDS011;5071;52.360;13.134;2023-03-12T00:51:24;2.13;;;0.70;;
10063;SDS011;5071;52.360;13.134;2023-03-12T00:56:26;3.30;;;1.10;;
10063;SDS011;5071;52.360;13.134;2023-03-12T01:01:28;2.13;;;1.03;;
10063;SDS011;5071;52.360;13.134;2023-03-12T01:06:32;1.10;;;0.60;;
10063;SDS011;5071;52.360;13.134;2023-03-12T01:11:35;5.00;;;0.97;;
10063;SDS011;5071;52.360;13.134;2023-03-12T01:16:39;3.07;;;0.73;;
10063;SDS011;5071;52.360;13.134;2023-03-12T01:21:42;4.70;;;0.80;;
10063;SDS011;5071;52.360;13.134;2023-03-12T01:26:45;1.43;;;0.80;;
10063;SDS011;5071;52.360;13.134;2023-03-12T01:31:47;0.87;;;0.70;;
10063;SDS011;5071;52.360;13.134;2023-03-12T01:36:51;1.63;;;1.03;;
10063;SDS011;5071;52.360;13.134;2023-03-12T01:41:53;1.67;;;0.97;;
10063;SDS011;5071;52.360;13.134;2023-03-12T01:46:55;1.30;;;0.90;;
10063;SDS011;5071;52.360;13.134;2023-03-12T01:52:00;2.53;;;0.80;;
10063;SDS011;5071;52.360;13.134;2023-03-12T01:57:05;3.37;;;1.07;;
10063;SDS011;5071;52.360;13.134;2023-03-12T02:02:11;1.33;;;1.07;;
10063;SDS011;5071;52.360;13.134;2023-03-12T02:07:16;1.10;;;0.60;;
10063;SDS011;5071;52.360;13.134;2023-03-12T02:12:18;4.03;;;0.70;;
10063;SDS011;5071;52.360;13.134;2023-03-12T02:17:20;3.63;;;0.60;;
10063;SDS011;5071;52.360;13.134;2023-03-12T02:22:23;4.17;;;0.87;;
10063;SDS011;5071;52.360;13.134;2023-03-12T02:27:27;2.80;;;0.73;;
10063;SDS011;5071;52.360;13.134;2023-03-12T02:32:32;2.23;;;1.00;;
10063;SDS011;5071;52.360;13.134;2023-03-12T02:37:45;3.33;;;1.00;;
10063;SDS011;5071;52.360;13.134;2023-03-12T02:42:50;1.40;;;0.67;;
10063;SDS011;5071;52.360;13.134;2023-03-12T02:47:52;5.10;;;1.03;;
10063;SDS011;5071;52.360;13.134;2023-03-12T02:52:55;4.47;;;1.27;;
10063;SDS011;5071;52.360;13.134;2023-03-12T02:57:58;2.83;;;1.03;;
10063;SDS011;5071;52.360;13.134;2023-03-12T03:03:00;1.10;;;0.50;;
10063;SDS011;5071;52.360;13.134;2023-03-12T03:08:03;1.33;;;0.80;;
10063;SDS011;5071;52.360;13.134;2023-03-12T03:13:07;1.77;;;0.80;;
10063;SDS011;5071;52.360;13.134;2023-03-12T03:18:09;2.27;;;0.77;;
10063;SDS011;5071;52.360;13.134;2023-03-12T03:23:12;1.17;;;0.73;;
10063;SDS011;5071;52.360;13.134;2023-03-12T03:28:15;3.50;;;0.80;;
10063;SDS011;5071;52.360;13.134;2023-03-12T03:33:21;1.00;;;0.83;;
10063;SDS011;5071;52.360;13.134;2023-03-12T03:38:23;2.70;;;1.27;;
10063;SDS011;5071;52.360;13.134;2023-03-12T03:43:27;2.67;;;1.00;;
10063;SDS011;5071;52.360;13.134;2023-03-12T03:48:29;2.33;;;1.10;;
10063;SDS011;5071;52.360;13.134;2023-03-12T03:53:32;3.53;;;1.50;;
10063;SDS011;5071;52.360;13.134;2023-03-12T03:58:36;3.37;;;1.23;;
10063;SDS011;5071;52.360;13.134;2023-03-12T04:03:38;3.20;;;1.10;;
10063;SDS011;5071;52.360;13.134;2023-03-12T04:08:41;3.70;;;1.40;;
10063;SDS011;5071;52.360;13.134;2023-03-12T04:13:44;1.90;;;1.23;;
10063;SDS011;5071;52.360;13.134;2023-03-12T04:18:46;2.23;;;1.30;;
10063;SDS011;5071;52.360;13.134;2023-03-12T04:23:49;1.37;;;1.10;;
10063;SDS011;5071;52.360;13.134;2023-03-12T04:28:52;6.20;;;1.70;;
10063;SDS011;5071;52.360;13.134;2023-03-12T04:33:54;2.70;;;1.30;;
10063;SDS011;5071;52.360;13.134;2023-03-12T04:38:59;2.80;;;1.33;;
10063;SDS011;5071;52.360;13.134;2023-03-12T04:44:03;2.73;;;1.50;;
10063;SDS011;5071;52.360;13.134;2023-03-12T04:49:06;1.43;;;1.13;;
10063;SDS011;5071;52.360;13.134;2023-03-12T04:54:08;3.30;;;1.67;;
10063;SDS011;5071;52.360;13.134;2023-03-12T04:59:11;1.50;;;0.83;;
10063;SDS011;5071;52.360;13.134;2023-03-12T05:04:19;2.20;;;1.00;;
10063;SDS011;5071;52.360;13.134;2023-03-12T05:09:22;3.17;;;1.30;;
10063;SDS011;5071;52.360;13.134;2023-03-12T05:14:25;1.07;;;0.73;;
10063;SDS011;5071;52.360;13.134;2023-03-12T05:19:27;2.17;;;1.00;;
10063;SDS011;5071;52.360;13.134;2023-03-12T05:24:29;1.23;;;1.00;;
10063;SDS011;5071;52.360;13.134;2023-03-12T05:29:32;1.30;;;1.03;;
10063;SDS011;5071;52.360;13.134;2023-03-12T05:34:35;4.47;;;1.83;;
10063;SDS011;5071;52.360;13.134;2023-03-12T05:39:37;4.60;;;1.47;;
10063;SDS011;5071;52.360;13.134;2023-03-12T05:44:41;2.53;;;1.70;;
10063;SDS011;5071;52.360;13.134;2023-03-12T05:49:43;3.77;;;1.73;;
10063;SDS011;5071;52.360;13.134;2023-03-12T05:54:45;2.23;;;1.27;;
10063;SDS011;5071;52.360;13.134;2023-03-12T05:59:49;2.10;;;1.00;;
10063;SDS011;5071;52.360;13.134;2023-03-12T06:04:51;6.80;;;1.20;;
10063;SDS011;5071;52.360;13.134;2023-03-12T06:09:53;1.63;;;1.00;;
10063;SDS011;5071;52.360;13.134;2023-03-12T06:14:57;3.33;;;1.00;;
10063;SDS011;5071;52.360;13.134;2023-03-12T06:19:59;1.27;;;0.87;;
10063;SDS011;5071;52.360;13.134;2023-03-12T06:25:01;1.97;;;1.00;;
10063;SDS011;5071;52.360;13.134;2023-03-12T06:30:05;1.80;;;0.90;;
10063;SDS011;5071;52.360;13.134;2023-03-12T06:35:08;2.67;;;1.10;;
10063;SDS011;5071;52.360;13.134;2023-03-12T06:40:11;2.07;;;1.00;;
10063;SDS011;5071;52.360;13.134;2023-03-12T06:45:15;5.60;;;1.20;;
10063;SDS011;5071;52.360;13.134;2023-03-12T06:50:17;2.93;;;1.23;;
10063;SDS011;5071;52.360;13.134;2023-03-12T06:55:19;2.73;;;1.80;;
10063;SDS011;5071;52.360;13.134;2023-03-12T07:00:22;1.43;;;1.17;;
10063;SDS011;5071;52.360;13.134;2023-03-12T07:05:24;3.27;;;1.50;;
10063;SDS011;5071;52.360;13.134;2023-03-12T07:10:30;2.60;;;0.80;;
10063;SDS011;5071;52.360;13.134;2023-03-12T07:15:40;3.53;;;1.13;;
10063;SDS011;5071;52.360;13.134;2023-03-12T07:20:42;2.23;;;1.10;;
10063;SDS011;5071;52.360;13.134;2023-03-12T07:25:45;1.20;;;1.10;;
10063;SDS011;5071;52.360;13.134;2023-03-12T07:30:49;3.33;;;1.33;;
10063;SDS011;5071;52.360;13.134;2023-03-12T07:35:51;1.60;;;1.43;;
10063;SDS011;5071;52.360;13.134;2023-03-12T07:40:54;3.10;;;1.27;;
10063;SDS011;5071;52.360;13.134;2023-03-12T07:45:59;1.67;;;1.03;;
10063;SDS011;5071;52.360;13.134;2023-03-12T07:51:01;1.87;;;1.20;;
10063;SDS011;5071;52.360;13.134;2023-03-12T07:56:04;3.10;;;1.27;;
10063;SDS011;5071;52.360;13.134;2023-03-12T08:01:08;2.70;;;1.20;;
10063;SDS011;5071;52.360;13.134;2023-03-12T08:06:10;2.43;;;1.53;;
10063;SDS011;5071;52.360;13.134;2023-03-12T08:11:12;2.70;;;1.13;;
10063;SDS011;5071;52.360;13.134;2023-03-12T08:16:16;1.90;;;1.53;;
10063;SDS011;5071;52.360;13.134;2023-03-12T08:21:18;1.83;;;1.20;;
10063;SDS011;5071;52.360;13.134;2023-03-12T08:26:20;4.00;;;1.47;;
10063;SDS011;5071;52.360;13.134;2023-03-12T08:31:23;3.40;;;1.50;;
10063;SDS011;5071;52.360;13.134;2023-03-12T08:36:25;3.47;;;1.30;;
10063;SDS011;5071;52.360;13.134;2023-03-12T08:41:28;4.13;;;1.60;;
10063;SDS011;5071;52.360;13.134;2023-03-12T08:46:31;2.03;;;1.13;;
10063;SDS011;5071;52.360;13.134;2023-03-12T08:51:33;1.30;;;1.03;;
10063;SDS011;5071;52.360;13.134;2023-03-12T08:56:35;2.53;;;1.33;;
10063;SDS011;5071;52.360;13.134;2023-03-12T09:01:39;3.17;;;1.57;;
10063;SDS011;5071;52.360;13.134;2023-03-12T09:06:44;2.47;;;1.13;;
10063;SDS011;5071;52.360;13.134;2023-03-12T09:11:46;3.20;;;0.90;;
10063;SDS011;5071;52.360;13.134;2023-03-12T09:16:50;3.33;;;1.27;;
10063;SDS011;5071;52.360;13.134;2023-03-12T09:21:52;2.43;;;1.00;;
10063;SDS011;5071;52.360;13.134;2023-03-12T09:26:54;1.97;;;0.90;;
10063;SDS011;5071;52.360;13.134;2023-03-12T09:31:58;1.67;;;0.90;;
10063;SDS011;5071;52.360;13.134;2023-03-12T09:37:00;1.50;;;0.90;;
10063;SDS011;5071;52.360;13.134;2023-03-12T09:42:03;2.93;;;1.10;;
10063;SDS011;5071;52.360;13.134;2023-03-12T09:47:10;1.23;;;1.00;;
10063;SDS011;5071;52.360;13.134;2023-03-12T09:52:24;2.47;;;1.30;;
10063;SDS011;5071;52.360;13.134;2023-03-12T09:57:30;3.00;;;1.30;;
10063;SDS011;5071;52.360;13.134;2023-03-12T10:02:50;3.40;;;0.93;;
10063;SDS011;5071;52.360;13.134;2023-03-12T10:07:56;3.93;;;1.03;;
10063;SDS011;5071;52.360;13.134;2023-03-12T10:13:38;1.90;;;1.13;;
10063;SDS011;5071;52.360;13.134;2023-03-12T10:18:57;2.20;;;1.00;;
10063;SDS011;5071;52.360;13.134;2023-03-12T10:24:17;3.03;;;1.03;;
10063;SDS011;5071;52.360;13.134;2023-03-12T10:29:27;0.90;;;0.80;;
10063;SDS011;5071;52.360;13.134;2023-03-12T10:34:38;1.27;;;0.83;;
10063;SDS011;5071;52.360;13.134;2023-03-12T10:39:43;3.10;;;1.10;;
10063;SDS011;5071;52.360;13.134;2023-03-12T10:44:46;2.47;;;1.10;;
10063;SDS011;5071;52.360;13.134;2023-03-12T10:49:52;2.13;;;1.23;;
10063;SDS011;5071;52.360;13.134;2023-03-12T10:54:54;2.33;;;1.53;;
10063;SDS011;5071;52.360;13.134;2023-03-12T11:00:03;2.97;;;1.40;;
10063;SDS011;5071;52.360;13.134;2023-03-12T11:05:19;3.13;;;1.30;;
10063;SDS011;5071;52.360;13.134;2023-03-12T11:10:23;2.50;;;1.30;;
10063;SDS011;5071;52.360;13.134;2023-03-12T11:15:27;2.27;;;1.10;;
10063;SDS011;5071;52.360;13.134;2023-03-12T11:20:32;4.63;;;1.97;;
10063;SDS011;5071;52.360;13.134;2023-03-12T11:25:34;1.13;;;0.77;;
10063;SDS011;5071;52.360;13.134;2023-03-12T11:30:37;1.73;;;1.10;;
10063;SDS011;5071;52.360;13.134;2023-03-12T11:35:44;3.03;;;1.27;;
10063;SDS011;5071;52.360;13.134;2023-03-12T11:40:58;2.03;;;1.20;;
10063;SDS011;5071;52.360;13.134;2023-03-12T11:46:11;2.20;;;1.50;;
10063;SDS011;5071;52.360;13.134;2023-03-12T11:51:28;1.80;;;1.33;;
10063;SDS011;5071;52.360;13.134;2023-03-12T11:56:37;4.97;;;2.10;;
10063;SDS011;5071;52.360;13.134;2023-03-12T12:01:49;2.60;;;1.60;;
10063;SDS011;5071;52.360;13.134;2023-03-12T12:07:01;3.47;;;1.63;;
10063;SDS011;5071;52.360;13.134;2023-03-12T12:12:16;5.60;;;1.63;;
10063;SDS011;5071;52.360;13.134;2023-03-12T12:17:32;5.63;;;1.40;;
10063;SDS011;5071;52.360;13.134;2023-03-12T12:22:53;1.70;;;1.10;;
10063;SDS011;5071;52.360;13.134;2023-03-12T12:28:14;4.00;;;1.13;;
10063;SDS011;5071;52.360;13.134;2023-03-12T12:33:30;1.27;;;0.90;;
10063;SDS011;5071;52.360;13.134;2023-03-12T12:38:46;1.43;;;1.10;;
10063;SDS011;5071;52.360;13.134;2023-03-12T12:43:56;9.23;;;3.70;;
10063;SDS011;5071;52.360;13.134;2023-03-12T12:49:09;5.03;;;2.63;;
10063;SDS011;5071;52.360;13.134;2023-03-12T12:54:15;1.80;;;1.00;;
10063;SDS011;5071;52.360;13.134;2023-03-12T12:59:29;3.33;;;1.50;;
10063;SDS011;5071;52.360;13.134;2023-03-12T13:04:38;1.37;;;1.10;;
10063;SDS011;5071;52.360;13.134;2023-03-12T13:09:42;1.37;;;0.90;;
10063;SDS011;5071;52.360;13.134;2023-03-12T13:15:31;1.90;;;1.33;;
10063;SDS011;5071;52.360;13.134;2023-03-12T13:20:39;4.10;;;1.73;;
10063;SDS011;5071;52.360;13.134;2023-03-12T13:25:48;3.13;;;1.40;;
10063;SDS011;5071;52.360;13.134;2023-03-12T13:31:00;1.90;;;1.10;;
10063;SDS011;5071;52.360;13.134;2023-03-12T13:36:08;1.73;;;0.73;;
10063;SDS011;5071;52.360;13.134;2023-03-12T13:41:28;3.00;;;1.93;;
10063;SDS011;5071;52.360;13.134;2023-03-12T13:46:38;0.90;;;0.83;;
10063;SDS011;5071;52.360;13.134;2023-03-12T13:51:43;3.17;;;0.70;;
10063;SDS011;5071;52.360;13.134;2023-03-12T13:56:52;2.50;;;1.33;;
10063;SDS011;5071;52.360;13.134;2023-03-12T14:02:06;1.93;;;1.60;;
10063;SDS011;5071;52.360;13.134;2023-03-12T14:07:39;4.27;;;1.10;;
10063;SDS011;5071;52.360;13.134;2023-03-12T14:12:53;1.77;;;1.43;;
10063;SDS011;5071;52.360;13.134;2023-03-12T14:18:09;3.33;;;1.70;;
10063;SDS011;5071;52.360;13.134;2023-03-12T14:23:16;12.30;;;7.13;;
10063;SDS011;5071;52.360;13.134;2023-03-12T14:28:19;1.33;;;1.23;;
10063;SDS011;5071;52.360;13.134;2023-03-12T14:33:24;2.07;;;1.50;;
10063;SDS011;5071;52.360;13.134;2023-03-12T14:38:28;4.27;;;2.07;;
10063;SDS011;5071;52.360;13.134;2023-03-12T14:43:33;6.17;;;3.20;;
10063;SDS011;5071;52.360;13.134;2023-03-12T14:48:37;1.50;;;1.37;;
10063;SDS011;5071;52.360;13.134;2023-03-12T14:53:39;4.23;;;1.50;;
10063;SDS011;5071;52.360;13.134;2023-03-12T14:58:42;1.67;;;1.20;;
10063;SDS011;5071;52.360;13.134;2023-03-12T15:03:48;2.00;;;1.33;;
10063;SDS011;5071;52.360;13.134;2023-03-12T15:08:53;3.70;;;2.13;;
10063;SDS011;5071;52.360;13.134;2023-03-12T15:14:01;2.27;;;1.50;;
10063;SDS011;5071;52.360;13.134;2023-03-12T15:19:09;2.33;;;1.83;;
10063;SDS011;5071;52.360;13.134;2023-03-12T15:24:14;3.80;;;1.23;;
10063;SDS011;5071;52.360;13.134;2023-03-12T15:29:19;4.30;;;1.50;;
10063;SDS011;5071;52.360;13.134;2023-03-12T15:34:29;1.30;;;1.17;;
10063;SDS011;5071;52.360;13.134;2023-03-12T15:39:34;2.37;;;1.20;;
10063;SDS011;5071;52.360;13.134;2023-03-12T15:44:41;5.80;;;2.53;;
10063;SDS011;5071;52.360;13.134;2023-03-12T15:49:48;4.27;;;2.80;;
10063;SDS011;5071;52.360;13.134;2023-03-12T15:55:01;2.43;;;1.77;;
10063;SDS011;5071;52.360;13.134;2023-03-12T16:00:12;3.83;;;2.00;;
10063;SDS011;5071;52.360;13.134;2023-03-12T16:05:19;3.07;;;1.73;;
10063;SDS011;5071;52.360;13.134;2023-03-12T16:10:24;3.93;;;2.23;;
10063;SDS011;5071;52.360;13.134;2023-03-12T16:15:29;3.77;;;2.00;;
10063;SDS011;5071;52.360;13.134;2023-03-12T16:20:33;4.17;;;1.73;;
10063;SDS011;5071;52.360;13.134;2023-03-12T16:25:35;3.07;;;2.37;;
10063;SDS011;5071;52.360;13.134;2023-03-12T16:30:37;3.33;;;1.80;;
10063;SDS011;5071;52.360;13.134;2023-03-12T16:35:41;6.80;;;2.60;;
10063;SDS011;5071;52.360;13.134;2023-03-12T16:40:44;3.73;;;3.33;;
10063;SDS011;5071;52.360;13.134;2023-03-12T16:45:49;3.47;;;1.90;;
10063;SDS011;5071;52.360;13.134;2023-03-12T16:50:55;4.93;;;1.87;;
10063;SDS011;5071;52.360;13.134;2023-03-12T16:55:58;3.07;;;1.77;;
10063;SDS011;5071;52.360;13.134;2023-03-12T17:01:02;2.87;;;1.90;;
10063;SDS011;5071;52.360;13.134;2023-03-12T17:06:06;3.67;;;1.87;;
10063;SDS011;5071;52.360;13.134;2023-03-12T17:11:15;1.87;;;1.30;;
10063;SDS011;5071;52.360;13.134;2023-03-12T17:16:19;3.97;;;1.90;;
10063;SDS011;5071;52.360;13.134;2023-03-12T17:21:22;2.77;;;1.53;;
10063;SDS011;5071;52.360;13.134;2023-03-12T17:26:24;4.00;;;2.70;;
10063;SDS011;5071;52.360;13.134;2023-03-12T17:31:26;2.77;;;2.17;;
10063;SDS011;5071;52.360;13.134;2023-03-12T17:36:30;4.97;;;2.27;;
10063;SDS011;5071;52.360;13.134;2023-03-12T17:41:32;3.73;;;2.63;;
10063;SDS011;5071;52.360;13.134;2023-03-12T17:46:34;4.10;;;2.37;;
10063;SDS011;5071;52.360;13.134;2023-03-12T17:51:38;4.47;;;2.50;;
10063;SDS011;5071;52.360;13.134;2023-03-12T17:56:40;3.33;;;2.10;;
10063;SDS011;5071;52.360;13.134;2023-03-12T18:01:42;10.33;;;2.43;;
10063;SDS011;5071;52.360;13.134;2023-03-12T18:06:45;5.77;;;2.57;;
10063;SDS011;5071;52.360;13.134;2023-03-12T18:11:47;7.03;;;2.77;;
10063;SDS011;5071;52.360;13.134;2023-03-12T18:16:49;5.20;;;2.53;;
10063;SDS011;5071;52.360;13.134;2023-03-12T18:21:53;3.73;;;2.50;;
10063;SDS011;5071;52.360;13.134;2023-03-12T18:26:56;4.63;;;2.93;;
10063;SDS011;5071;52.360;13.134;2023-03-12T18:31:57;7.50;;;3.60;;
10063;SDS011;5071;52.360;13.134;2023-03-12T18:37:01;3.90;;;2.90;;
10063;SDS011;5071;52.360;13.134;2023-03-12T18:42:03;4.50;;;2.87;;
10063;SDS011;5071;52.360;13.134;2023-03-12T18:47:06;6.17;;;3.07;;
10063;SDS011;5071;52.360;13.134;2023-03-12T18:52:09;4.77;;;3.00;;
10063;SDS011;5071;52.360;13.134;2023-03-12T18:57:11;7.87;;;3.30;;
10063;SDS011;5071;52.360;13.134;2023-03-12T19:02:13;6.87;;;3.17;;
10063;SDS011;5071;52.360;13.134;2023-03-12T19:07:17;4.70;;;2.83;;
10063;SDS011;5071;52.360;13.134;2023-03-12T19:12:19;4.97;;;3.47;;
10063;SDS011;5071;52.360;13.134;2023-03-12T19:17:22;11.87;;;3.90;;
10063;SDS011;5071;52.360;13.134;2023-03-12T19:22:26;10.30;;;4.30;;
10063;SDS011;5071;52.360;13.134;2023-03-12T19:27:28;8.63;;;3.67;;
10063;SDS011;5071;52.360;13.134;2023-03-12T19:32:30;6.17;;;3.80;;
10063;SDS011;5071;52.360;13.134;2023-03-12T19:37:46;4.93;;;3.90;;
10063;SDS011;5071;52.360;13.134;2023-03-12T19:42:48;7.30;;;4.20;;
10063;SDS011;5071;52.360;13.134;2023-03-12T19:47:51;9.17;;;4.60;;
10063;SDS011;5071;52.360;13.134;2023-03-12T19:52:55;11.60;;;4.77;;
10063;SDS011;5071;52.360;13.134;2023-03-12T19:57:57;8.90;;;4.97;;
10063;SDS011;5071;52.360;13.134;2023-03-12T20:03:01;10.00;;;6.70;;
10063;SDS011;5071;52.360;13.134;2023-03-12T20:08:05;7.87;;;5.70;;
10063;SDS011;5071;52.360;13.134;2023-03-12T20:13:07;8.03;;;5.90;;
10063;SDS011;5071;52.360;13.134;2023-03-12T20:18:10;8.20;;;5.40;;
10063;SDS011;5071;52.360;13.134;2023-03-12T20:23:14;8.67;;;5.70;;
10063;SDS011;5071;52.360;13.134;2023-03-12T20:28:19;8.97;;;6.57;;
10063;SDS011;5071;52.360;13.134;2023-03-12T20:33:22;11.03;;;5.80;;
10063;SDS011;5071;52.360;13.134;2023-03-12T20:38:26;9.53;;;6.33;;
10063;SDS011;5071;52.360;13.134;2023-03-12T20:43:32;15.63;;;7.30;;
10063;SDS011;5071;52.360;13.134;2023-03-12T20:48:34;10.43;;;6.63;;
10063;SDS011;5071;52.360;13.134;2023-03-12T20:53:38;12.00;;;6.20;;
10063;SDS011;5071;52.360;13.134;2023-03-12T20:58:41;8.63;;;6.10;;
10063;SDS011;5071;52.360;13.134;2023-03-12T21:03:43;11.57;;;6.83;;
10063;SDS011;5071;52.360;13.134;2023-03-12T21:08:46;9.67;;;6.33;;
10063;SDS011;5071;52.360;13.134;2023-03-12T21:13:49;10.50;;;6.30;;
10063;SDS011;5071;52.360;13.134;2023-03-12T21:18:53;12.67;;;6.33;;
10063;SDS011;5071;52.360;13.134;2023-03-12T21:23:57;9.90;;;6.37;;
10063;SDS011;5071;52.360;13.134;2023-03-12T21:29:01;11.60;;;6.13;;
10063;SDS011;5071;52.360;13.134;2023-03-12T21:34:04;13.67;;;7.17;;
10063;SDS011;5071;52.360;13.134;2023-03-12T21:39:11;13.90;;;6.30;;
10063;SDS011;5071;52.360;13.134;2023-03-12T21:44:13;10.23;;;6.27;;
10063;SDS011;5071;52.360;13.134;2023-03-12T21:49:17;10.07;;;6.10;;
10063;SDS011;5071;52.360;13.134;2023-03-12T21:54:20;9.43;;;5.70;;
10063;SDS011;5071;52.360;13.134;2023-03-12T21:59:23;14.90;;;6.27;;
10063;SDS011;5071;52.360;13.134;2023-03-12T22:04:25;9.27;;;5.90;;
10063;SDS011;5071;52.360;13.134;2023-03-12T22:09:29;10.67;;;5.57;;
10063;SDS011;5071;52.360;13.134;2023-03-12T22:14:31;8.93;;;5.50;;
10063;SDS011;5071;52.360;13.134;2023-03-12T22:19:33;14.80;;;6.67;;
10063;SDS011;5071;52.360;13.134;2023-03-12T22:24:37;11.70;;;6.07;;
10063;SDS011;5071;52.360;13.134;2023-03-12T22:29:39;8.27;;;5.07;;
10063;SDS011;5071;52.360;13.134;2023-03-12T22:34:41;10.47;;;6.13;;
10063;SDS011;5071;52.360;13.134;2023-03-12T22:39:45;13.40;;;5.47;;
10063;SDS011;5071;52.360;13.134;2023-03-12T22:44:47;13.30;;;5.67;;
10063;SDS011;5071;52.360;13.134;2023-03-12T22:49:49;10.33;;;5.33;;
10063;SDS011;5071;52.360;13.134;2023-03-12T22:54:53;6.97;;;4.50;;
10063;SDS011;5071;52.360;13.134;2023-03-12T22:59:55;12.10;;;5.07;;
10063;SDS011;5071;52.360;13.134;2023-03-12T23:04:58;10.03;;;5.30;;
10063;SDS011;5071;52.360;13.134;2023-03-12T23:10:02;7.80;;;5.03;;
10063;SDS011;5071;52.360;13.134;2023-03-12T23:15:05;7.60;;;5.40;;
10063;SDS011;5071;52.360;13.134;2023-03-12T23:20:15;12.57;;;4.83;;
10063;SDS011;5071;52.360;13.134;2023-03-12T23:25:18;10.93;;;5.83;;
10063;SDS011;5071;52.360;13.134;2023-03-12T23:30:20;9.47;;;5.50;;
10063;SDS011;5071;52.360;13.134;2023-03-12T23:35:23;9.03;;;5.30;;
10063;SDS011;5071;52.360;13.134;2023-03-12T23:40:26;7.53;;;5.07;;
10063;SDS011;5071;52.360;13.134;2023-03-12T23:45:28;8.57;;;4.97;;
10063;SDS011;5071;52.360;13.134;2023-03-12T23:50:31;9.63;;;5.20;;
10063;SDS011;5071;52.360;13.134;2023-03-12T23:55:35;10.80;;;5.30;;
